Time;durP1;ratioP1;P1;durP2;ratioP2;P2;SDS_P1;SDS_P2;PMS_P1;PMS_P2;Temp;Humidity;BMP_temperature;BMP_pressure;BME280_temperature;BME280_humidity;BME280_pressure;Samples;Min_cycle;Max_cycle;Signal;HPM_P1;HPM_P2
2021/04/23 00:03:49;;;;;;;9.47;4.00;;;;;;;9.94;41.03;98650.25;8362873;28;20572;-65
2021/04/23 00:07:52;;;;;;;11.87;4.53;;;;;;;9.99;41.32;98653.53;8363247;28;20227;-65
2021/04/23 00:11:56;;;;;;;8.23;4.07;;;;;;;9.92;41.47;98658.06;8363410;28;20608;-66
2021/04/23 00:15:59;;;;;;;11.00;4.90;;;;;;;9.89;41.63;98658.16;8362966;28;20702;-65
2021/04/23 00:20:01;;;;;;;12.67;4.57;;;;;;;9.77;41.93;98661.97;8363132;28;20223;-65
2021/04/23 00:24:04;;;;;;;10.17;4.13;;;;;;;9.79;41.74;98667.09;8362771;28;20493;-65
2021/04/23 00:28:10;;;;;;;15.97;5.07;;;;;;;9.75;41.68;98663.75;8362789;28;20211;-65
2021/04/23 00:36:32;;;;;;;11.43;4.90;;;;;;;9.54;41.82;98662.63;8394274;28;20200;-65
2021/04/23 00:40:37;;;;;;;9.87;4.30;;;;;;;9.46;42.36;98662.03;8395319;28;20225;-65
2021/04/23 00:44:39;;;;;;;12.67;4.70;;;;;;;9.46;42.02;98659.44;8395203;28;20234;-65
2021/04/23 00:48:43;;;;;;;8.33;4.57;;;;;;;9.36;42.50;98663.16;8395204;28;20203;-65
2021/04/23 00:52:46;;;;;;;12.50;5.20;;;;;;;9.32;42.49;98662.38;8394498;28;20722;-65
2021/04/23 00:56:49;;;;;;;12.57;4.63;;;;;;;9.31;42.44;98660.72;8395063;28;20252;-65
2021/04/23 01:00:53;;;;;;;10.37;4.47;;;;;;;9.20;42.37;98663.59;8395372;28;20249;-65
2021/04/23 01:04:55;;;;;;;11.80;4.77;;;;;;;9.20;42.59;98658.41;8362070;28;20219;-65
2021/04/23 01:09:00;;;;;;;13.23;5.13;;;;;;;9.14;42.95;98660.34;8361464;28;20203;-65
2021/04/23 01:13:03;;;;;;;11.73;4.90;;;;;;;9.30;42.66;98663.34;8361985;28;20204;-65
2021/04/23 01:17:05;;;;;;;12.43;4.67;;;;;;;9.23;42.62;98662.63;8361575;28;20224;-65
2021/04/23 01:21:10;;;;;;;13.67;4.97;;;;;;;9.19;42.90;98663.63;8361220;28;20231;-65
2021/04/23 01:25:13;;;;;;;10.87;4.63;;;;;;;9.23;42.87;98657.47;8361404;28;20290;-65
2021/04/23 01:29:17;;;;;;;13.50;4.83;;;;;;;9.18;42.96;98656.78;8361330;28;20207;-65
2021/04/23 01:33:18;;;;;;;10.87;4.27;;;;;;;9.22;43.08;98660.97;8361736;28;20222;-65
2021/04/23 01:37:21;;;;;;;10.50;4.37;;;;;;;9.06;43.17;98657.94;8362022;28;20211;-65
2021/04/23 01:41:23;;;;;;;11.37;5.00;;;;;;;9.01;43.50;98662.41;8361317;28;20238;-65
2021/04/23 01:45:25;;;;;;;11.33;5.20;;;;;;;9.00;43.29;98665.84;8360978;28;20200;-65
2021/04/23 01:49:27;;;;;;;13.73;5.43;;;;;;;9.02;43.38;98666.66;8361408;28;20204;-65
2021/04/23 01:53:30;;;;;;;15.27;5.33;;;;;;;8.93;43.80;98670.34;8360900;28;20211;-65
2021/04/23 01:57:31;;;;;;;13.33;4.87;;;;;;;8.94;43.50;98666.88;8361144;28;20204;-66
2021/04/23 02:01:34;;;;;;;12.43;4.27;;;;;;;8.87;43.86;98673.09;8368343;28;20223;-65
2021/04/23 02:05:36;;;;;;;13.97;5.40;;;;;;;8.77;43.54;98677.63;8400119;28;20223;-65
2021/04/23 02:09:39;;;;;;;14.57;4.80;;;;;;;8.86;43.62;98675.72;8399928;28;20576;-65
2021/04/23 02:13:42;;;;;;;11.57;5.23;;;;;;;8.72;43.91;98683.81;8399775;28;20646;-65
2021/04/23 02:17:44;;;;;;;10.00;5.00;;;;;;;8.71;43.51;98692.47;8399413;28;20701;-65
2021/04/23 02:21:47;;;;;;;9.47;4.50;;;;;;;8.48;44.33;98690.44;8399695;28;20686;-65
2021/04/23 02:25:52;;;;;;;10.63;4.93;;;;;;;8.55;44.21;98690.25;8399665;28;20603;-65
2021/04/23 02:29:54;;;;;;;15.57;5.10;;;;;;;8.51;44.37;98690.34;8399633;28;20656;-65
2021/04/23 02:34:00;;;;;;;12.60;4.87;;;;;;;8.61;44.04;98684.09;8399251;28;20222;-65
2021/04/23 02:38:04;;;;;;;13.70;5.40;;;;;;;8.53;43.66;98683.41;8399333;28;20546;-65
2021/04/23 02:42:07;;;;;;;12.87;5.50;;;;;;;8.56;43.79;98688.50;8398776;28;20219;-65
2021/04/23 02:46:10;;;;;;;12.27;5.30;;;;;;;8.39;44.11;98688.88;8399116;28;20207;-67
2021/04/23 02:50:13;;;;;;;12.30;5.10;;;;;;;8.36;44.24;98691.56;8398777;28;20199;-65
2021/04/23 02:54:16;;;;;;;12.73;4.93;;;;;;;8.34;44.25;98689.00;8398617;28;20206;-65
2021/04/23 02:58:20;;;;;;;10.87;4.67;;;;;;;8.38;44.33;98690.63;8398627;28;20542;-65
2021/04/23 03:02:23;;;;;;;11.67;4.90;;;;;;;8.36;44.14;98688.97;8398394;28;20643;-65
2021/04/23 03:06:25;;;;;;;11.67;5.03;;;;;;;8.39;44.06;98700.06;8398349;28;20230;-65
2021/04/23 03:10:30;;;;;;;13.83;4.97;;;;;;;8.26;44.55;98703.81;8397961;28;20233;-65
2021/04/23 03:14:33;;;;;;;12.73;5.00;;;;;;;8.13;44.57;98704.97;8397341;28;20227;-65
2021/04/23 03:18:36;;;;;;;10.50;4.10;;;;;;;8.05;44.86;98706.88;8397970;28;20278;-65
2021/04/23 03:22:38;;;;;;;11.03;4.83;;;;;;;7.98;44.99;98709.59;8398140;28;20227;-65
2021/04/23 03:26:41;;;;;;;12.03;4.90;;;;;;;8.06;45.21;98713.75;8398152;28;20207;-65
2021/04/23 03:30:45;;;;;;;15.20;4.80;;;;;;;7.97;45.04;98713.06;8397866;28;20242;-65
2021/04/23 03:34:46;;;;;;;12.20;5.60;;;;;;;8.06;44.88;98713.75;8397368;28;20206;-65
2021/04/23 03:38:49;;;;;;;14.60;5.13;;;;;;;7.91;45.22;98720.94;8397250;28;20608;-65
2021/04/23 03:42:51;;;;;;;10.17;4.90;;;;;;;7.73;45.43;98714.44;8397002;28;20223;-65
2021/04/23 03:46:54;;;;;;;10.53;4.80;;;;;;;7.81;45.33;98729.75;8396957;28;20221;-66
2021/04/23 03:50:56;;;;;;;15.37;5.17;;;;;;;7.77;45.46;98722.97;8396969;28;20214;-65
2021/04/23 03:54:59;;;;;;;11.93;5.60;;;;;;;7.81;45.16;98727.19;8396921;28;20214;-65
2021/04/23 03:59:01;;;;;;;11.17;5.10;;;;;;;7.67;45.61;98727.44;8396857;28;20199;-65
2021/04/23 04:03:04;;;;;;;11.07;5.00;;;;;;;7.70;45.75;98736.88;8396352;28;20222;-65
2021/04/23 04:07:06;;;;;;;11.37;5.13;;;;;;;7.54;45.83;98729.44;8396498;28;20219;-65
2021/04/23 04:11:09;;;;;;;12.33;5.00;;;;;;;7.57;45.68;98728.53;8396855;28;20207;-65
2021/04/23 04:15:11;;;;;;;12.23;5.27;;;;;;;7.50;45.67;98732.97;8396732;28;20231;-65
2021/04/23 04:19:14;;;;;;;12.10;5.00;;;;;;;7.48;46.23;98742.41;8396323;28;20203;-65
2021/04/23 04:23:18;;;;;;;11.50;4.67;;;;;;;7.54;46.22;98746.63;8395908;28;20628;-65
2021/04/23 04:27:20;;;;;;;15.43;6.00;;;;;;;7.52;45.89;98759.56;8395192;28;20199;-65
2021/04/23 04:31:21;;;;;;;10.63;5.00;;;;;;;7.61;45.86;98771.41;8395815;28;20234;-65
2021/04/23 04:35:26;;;;;;;12.40;5.00;;;;;;;7.52;46.13;98762.13;8395946;28;20194;-65
2021/04/23 04:39:28;;;;;;;15.93;5.37;;;;;;;7.52;45.98;98769.88;8395299;28;20214;-65
2021/04/23 04:43:30;;;;;;;10.77;5.07;;;;;;;7.56;45.75;98778.41;8395600;28;20207;-65
2021/04/23 04:47:32;;;;;;;12.10;4.40;;;;;;;7.28;46.51;98778.06;8395428;28;20203;-65
2021/04/23 04:51:35;;;;;;;13.00;5.90;;;;;;;7.52;45.83;98785.34;8395456;28;20228;-65
2021/04/23 04:55:39;;;;;;;8.77;5.20;;;;;;;7.63;45.77;98793.72;8395467;28;20226;-65
2021/04/23 04:59:44;;;;;;;14.43;6.10;;;;;;;7.57;46.32;98800.69;8395337;28;20206;-65
2021/04/23 05:03:46;;;;;;;14.23;5.97;;;;;;;7.72;46.07;98808.13;8369534;28;20200;-65
2021/04/23 05:07:49;;;;;;;11.47;5.03;;;;;;;7.81;46.03;98805.38;8362449;28;20203;-65
2021/04/23 05:11:50;;;;;;;13.57;5.57;;;;;;;7.69;46.32;98807.34;8363277;28;20215;-65
2021/04/23 05:15:52;;;;;;;11.53;5.30;;;;;;;7.75;46.25;98814.94;8363442;28;20215;-65
2021/04/23 05:19:55;;;;;;;12.67;5.27;;;;;;;7.87;46.66;98822.47;8362735;28;20231;-65
2021/04/23 05:23:58;;;;;;;13.87;5.37;;;;;;;8.02;46.34;98819.56;8362547;28;20250;-65
2021/04/23 05:28:00;;;;;;;13.03;5.80;;;;;;;7.98;46.42;98825.69;8363372;28;20196;-65
2021/04/23 05:32:02;;;;;;;16.97;7.27;;;;;;;8.01;45.99;98828.22;8362803;28;20247;-65
2021/04/23 05:36:05;;;;;;;17.33;7.57;;;;;;;8.24;45.86;98826.84;8362203;28;20203;-65
2021/04/23 05:40:11;;;;;;;17.27;7.73;;;;;;;8.25;45.96;98833.72;8367465;28;20276;-65
2021/04/23 05:44:18;;;;;;;16.97;8.27;;;;;;;8.44;45.72;98841.97;8369693;28;20531;-65
2021/04/23 05:48:20;;;;;;;18.57;7.60;;;;;;;8.81;45.44;98843.72;8369772;28;20223;-65
2021/04/23 05:52:22;;;;;;;14.63;7.67;;;;;;;8.92;45.44;98840.88;8369771;28;20544;-64
2021/04/23 05:56:24;;;;;;;16.90;7.47;;;;;;;9.25;45.13;98838.34;8367984;28;20210;-65
2021/04/23 06:00:29;;;;;;;14.57;7.00;;;;;;;9.77;43.96;98845.63;8369186;28;20518;-65
2021/04/23 06:04:31;;;;;;;17.87;6.80;;;;;;;10.06;43.57;98849.13;8368931;28;20199;-65
2021/04/23 06:08:33;;;;;;;16.23;6.47;;;;;;;10.23;43.03;98853.84;8368506;28;20200;-66
2021/04/23 06:12:35;;;;;;;13.90;6.90;;;;;;;10.79;42.56;98850.47;8401458;28;20206;-66
2021/04/23 06:16:37;;;;;;;15.17;6.83;;;;;;;10.94;42.45;98854.31;8401129;28;20345;-65
2021/04/23 06:20:41;;;;;;;20.10;6.53;;;;;;;11.00;41.56;98853.28;8401181;28;20619;-66
2021/04/23 06:24:48;;;;;;;13.83;6.10;;;;;;;11.25;40.96;98851.59;8401940;28;20188;-66
2021/04/23 06:28:51;;;;;;;14.87;6.00;;;;;;;11.54;41.05;98850.63;8400966;28;20293;-66
2021/04/23 06:32:53;;;;;;;14.40;5.87;;;;;;;12.03;39.84;98862.78;8401914;28;20242;-66
2021/04/23 06:36:55;;;;;;;14.57;5.97;;;;;;;12.28;39.91;98862.75;8400739;28;20198;-65
2021/04/23 06:40:57;;;;;;;13.47;6.30;;;;;;;12.49;39.03;98871.50;8400628;28;20242;-66
2021/04/23 06:45:01;;;;;;;11.40;5.40;;;;;;;12.66;39.52;98878.63;8390900;28;20590;-65
2021/04/23 06:49:03;;;;;;;21.43;6.33;;;;;;;12.83;38.57;98878.00;8365978;28;20208;-65
2021/04/23 06:53:06;;;;;;;15.10;5.80;;;;;;;13.19;38.70;98870.47;8365191;28;20212;-65
2021/04/23 06:57:07;;;;;;;13.77;5.17;;;;;;;13.27;38.45;98876.22;8365766;28;20212;-66
2021/04/23 07:01:10;;;;;;;12.30;5.20;;;;;;;13.67;38.06;98873.78;8433661;28;20227;-65
2021/04/23 07:05:13;;;;;;;14.33;5.20;;;;;;;13.82;37.50;98867.91;8433539;28;20199;-65
2021/04/23 07:09:17;;;;;;;15.33;5.67;;;;;;;13.62;37.99;98871.34;8433743;28;20282;-66
2021/04/23 07:13:20;;;;;;;14.43;5.20;;;;;;;14.09;36.19;98870.22;8433755;28;20571;-66
2021/04/23 07:17:22;;;;;;;12.20;5.43;;;;;;;14.08;35.96;98864.13;8433415;28;20248;-66
2021/04/23 07:21:24;;;;;;;11.87;5.27;;;;;;;14.80;35.31;98877.44;8434027;28;20257;-66
2021/04/23 07:25:27;;;;;;;12.50;5.37;;;;;;;15.09;34.46;98872.59;8433795;28;20210;-66
2021/04/23 07:29:29;;;;;;;19.93;4.73;;;;;;;15.53;41.05;98880.84;8432676;28;20658;-67
2021/04/23 07:33:32;;;;;;;10.97;4.50;;;;;;;16.81;36.61;98880.25;8431297;28;20195;-68
2021/04/23 07:37:34;;;;;;;19.00;5.30;;;;;;;17.02;32.84;98873.91;8431740;28;20206;-67
2021/04/23 07:41:36;;;;;;;12.50;4.97;;;;;;;17.16;31.17;98874.84;8432997;28;20222;-67
2021/04/23 07:45:39;;;;;;;12.93;5.50;;;;;;;17.44;30.55;98877.63;8433356;28;20198;-67
2021/04/23 07:49:42;;;;;;;16.63;5.33;;;;;;;17.78;29.33;98871.25;8433586;28;20206;-68
2021/04/23 07:53:52;;;;;;;18.33;5.40;;;;;;;18.07;28.69;98871.34;8432509;28;20187;-68
2021/04/23 07:57:55;;;;;;;14.57;4.87;;;;;;;17.98;28.41;98870.94;8433153;28;20203;-68
2021/04/23 08:01:57;;;;;;;12.57;4.80;;;;;;;18.10;28.01;98868.50;8431230;28;20283;-67
2021/04/23 08:05:59;;;;;;;18.87;5.70;;;;;;;18.52;27.80;98880.78;8433226;28;20261;-68
2021/04/23 08:10:21;;;;;;;16.07;4.97;;;;;;;18.74;27.84;98882.88;8433603;28;20204;-68
2021/04/23 08:14:23;;;;;;;12.73;5.23;;;;;;;18.85;27.64;98879.59;8432410;28;20579;-68
2021/04/23 08:18:25;;;;;;;15.73;5.53;;;;;;;18.99;27.28;98880.50;8431892;28;20209;-69
2021/04/23 08:22:28;;;;;;;14.23;5.03;;;;;;;18.82;28.03;98879.78;8430908;28;20222;-69
2021/04/23 08:26:30;;;;;;;15.33;5.13;;;;;;;19.26;27.07;98878.69;8431374;28;20206;-68
2021/04/23 08:30:32;;;;;;;12.13;5.27;;;;;;;19.25;26.85;98878.81;8431219;28;20300;-67
2021/04/23 08:34:34;;;;;;;17.00;5.10;;;;;;;19.94;26.43;98882.09;8430961;28;20214;-67
2021/04/23 08:38:36;;;;;;;10.20;4.60;;;;;;;19.92;26.21;98878.75;8430133;28;20214;-67
2021/04/23 08:42:38;;;;;;;15.90;5.53;;;;;;;20.25;25.80;98878.19;8430596;28;20225;-67
2021/04/23 08:46:40;;;;;;;11.30;5.93;;;;;;;20.25;24.85;98877.34;8431862;28;20210;-63
2021/04/23 08:50:43;;;;;;;11.63;5.87;;;;;;;20.20;24.62;98876.81;8401097;28;20751;-63
2021/04/23 08:54:46;;;;;;;14.60;6.50;;;;;;;19.99;24.59;98877.38;8363410;28;20222;-64
2021/04/23 08:58:48;;;;;;;13.20;6.33;;;;;;;20.03;24.63;98881.47;8363969;28;20207;-64
2021/04/23 09:02:50;;;;;;;13.93;5.87;;;;;;;20.05;24.88;98887.47;8364354;28;20227;-64
2021/04/23 09:07:00;;;;;;;13.37;6.63;;;;;;;19.91;24.70;98885.78;8365517;28;20207;-64
2021/04/23 09:11:15;;;;;;;12.93;6.27;;;;;;;20.13;24.17;98892.19;8362456;28;20196;-63
2021/04/23 09:15:22;;;;;;;11.93;5.70;;;;;;;20.48;23.47;98892.34;8371104;28;20220;-64
2021/04/23 09:19:25;;;;;;;16.83;7.00;;;;;;;20.44;24.14;98887.44;8371731;28;20219;-64
2021/04/23 09:23:28;;;;;;;19.37;6.50;;;;;;;20.21;24.53;98889.03;8370562;28;20307;-64
2021/04/23 09:27:32;;;;;;;17.53;6.90;;;;;;;20.41;24.00;98885.00;8370044;28;20199;-61
2021/04/23 09:31:35;;;;;;;12.17;6.23;;;;;;;20.57;23.71;98875.09;8370670;28;20241;-63
2021/04/23 09:35:38;;;;;;;15.40;6.30;;;;;;;20.67;23.99;98878.75;8369242;28;20199;-65
2021/04/23 09:39:50;;;;;;;25.80;6.73;;;;;;;20.74;23.85;98876.56;8370308;28;20195;-65
2021/04/23 09:43:52;;;;;;;14.77;5.70;;;;;;;20.85;22.97;98871.34;8368757;28;20671;-66
2021/04/23 09:47:55;;;;;;;13.53;5.60;;;;;;;21.02;23.57;98867.50;8369433;28;20322;-65
2021/04/23 09:51:57;;;;;;;16.77;5.87;;;;;;;21.13;23.78;98871.97;8369015;28;20212;-65
2021/04/23 09:55:59;;;;;;;13.23;5.23;;;;;;;21.19;22.86;98861.00;8368568;28;20203;-65
2021/04/23 10:00:06;;;;;;;10.83;5.60;;;;;;;21.48;22.85;98861.47;8369346;28;20247;-65
2021/04/23 10:04:20;;;;;;;9.37;5.37;;;;;;;21.68;22.33;98853.84;8369306;28;20191;-66
2021/04/23 10:08:25;;;;;;;15.63;6.67;;;;;;;21.45;21.49;98860.88;8368186;28;20192;-66
2021/04/23 10:12:50;;;;;;;16.20;5.97;;;;;;;20.92;21.48;98860.38;8367837;28;20188;-66
2021/04/23 10:16:58;;;;;;;11.67;6.07;;;;;;;21.46;21.45;98862.56;8368375;28;20223;-66
2021/04/23 10:21:00;;;;;;;17.10;6.40;;;;;;;21.51;22.10;98857.75;8367643;28;20212;-66
2021/04/23 10:25:03;;;;;;;13.50;5.90;;;;;;;21.72;22.17;98863.19;8368183;28;20199;-66
2021/04/23 10:29:05;;;;;;;12.03;5.73;;;;;;;21.72;21.53;98857.09;8368919;28;20195;-65
2021/04/23 10:33:09;;;;;;;19.20;5.70;;;;;;;21.71;21.81;98851.00;8367442;28;20219;-65
2021/04/23 10:37:13;;;;;;;17.67;6.20;;;;;;;21.86;21.33;98860.38;8368309;28;20599;-65
2021/04/23 10:41:15;;;;;;;15.27;5.97;;;;;;;21.79;21.50;98851.25;8367555;28;20230;-65
2021/04/23 10:45:33;;;;;;;13.70;5.77;;;;;;;21.83;21.95;98850.03;8366276;28;20285;-65
2021/04/23 10:50:05;;;;;;;13.10;5.40;;;;;;;21.83;22.20;98851.84;8367421;28;20199;-66
2021/04/23 10:54:13;;;;;;;11.80;5.60;;;;;;;22.10;21.81;98848.88;8368211;28;20309;-65
2021/04/23 10:58:16;;;;;;;16.23;5.43;;;;;;;22.08;25.37;98847.31;8413506;28;20207;-67
2021/04/23 11:02:18;;;;;;;22.60;5.23;;;;;;;22.38;24.24;98850.22;8435017;28;20223;-67
2021/04/23 11:06:29;;;;;;;16.93;5.63;;;;;;;22.60;23.31;98849.34;8433841;28;20215;-67
2021/04/23 11:11:11;;;;;;;14.07;5.23;;;;;;;22.78;23.55;98835.63;8433902;28;20191;-64
2021/04/23 11:15:14;;;;;;;11.00;4.37;;;;;;;22.73;22.78;98841.28;8434509;28;20555;-64
2021/04/23 11:19:37;;;;;;;13.57;5.23;;;;;;;22.84;23.09;98838.59;8432773;28;20216;-64
2021/04/23 11:24:11;;;;;;;12.60;5.00;;;;;;;23.01;22.90;98831.09;8366962;28;20239;-65
2021/04/23 11:28:13;;;;;;;20.30;5.60;;;;;;;23.08;21.83;98840.25;8397166;28;20685;-64
2021/04/23 11:32:17;;;;;;;62.20;7.40;;;;;;;22.82;21.59;98824.69;8397311;28;20242;-65
2021/04/23 11:36:33;;;;;;;14.67;5.00;;;;;;;23.26;21.56;98823.84;8397084;28;20696;-64
2021/04/23 11:40:36;;;;;;;14.47;4.47;;;;;;;23.36;22.13;98828.22;8397981;28;20258;-64
2021/04/23 11:44:41;;;;;;;8.97;4.07;;;;;;;23.22;22.24;98810.88;8395806;28;20209;-65
2021/04/23 11:48:50;;;;;;;15.27;4.70;;;;;;;23.37;21.29;98810.56;8399276;28;20257;-65
2021/04/23 11:52:54;;;;;;;12.17;4.47;;;;;;;23.37;21.27;98806.09;8373303;28;20481;-65
2021/04/23 11:56:57;;;;;;;21.43;5.00;;;;;;;23.03;21.54;98808.09;8364878;28;20207;-65
2021/04/23 12:01:00;;;;;;;11.60;3.83;;;;;;;23.33;21.88;98802.06;8364801;28;20237;-65
2021/04/23 12:05:02;;;;;;;9.90;4.23;;;;;;;23.34;22.19;98803.75;8364925;28;20294;-67
2021/04/23 12:09:15;;;;;;;14.37;4.37;;;;;;;23.16;21.22;98798.16;8364947;28;20195;-68
2021/04/23 12:13:20;;;;;;;11.97;5.67;;;;;;;22.52;22.31;98787.56;8365559;28;20254;-68
2021/04/23 12:17:21;;;;;;;8.30;3.77;;;;;;;23.12;21.32;98788.84;8364290;28;20235;-68
2021/04/23 12:21:23;;;;;;;9.93;4.07;;;;;;;23.14;21.49;98776.31;8363724;28;20229;-68
2021/04/23 12:25:31;;;;;;;11.53;4.20;;;;;;;23.36;20.72;98785.94;8365913;28;20207;-68
2021/04/23 12:29:33;;;;;;;8.47;3.70;;;;;;;23.02;21.36;98795.81;8364728;28;20242;-67
2021/04/23 12:33:47;;;;;;;9.50;4.63;;;;;;;22.74;19.73;98791.97;8365151;28;20319;-67
2021/04/23 12:37:49;;;;;;;8.87;3.37;;;;;;;23.36;20.68;98787.72;8365366;28;20611;-67
2021/04/23 12:41:52;;;;;;;8.27;3.40;;;;;;;23.47;20.56;98786.84;8363924;28;20689;-68
2021/04/23 12:45:56;;;;;;;10.23;3.37;;;;;;;22.73;20.43;98777.06;8363616;28;20270;-66
2021/04/23 12:49:58;;;;;;;10.23;3.33;;;;;;;23.12;19.95;98783.56;8362676;28;20201;-66
2021/04/23 12:54:00;;;;;;;11.67;3.50;;;;;;;22.93;20.64;98781.56;8365109;28;20577;-66
2021/04/23 12:58:02;;;;;;;7.53;3.00;;;;;;;23.19;20.34;98775.97;8363470;28;20202;-66
2021/04/23 13:02:11;;;;;;;8.50;3.03;;;;;;;23.16;19.79;98778.84;8364513;28;20669;-66
2021/04/23 13:06:23;;;;;;;6.03;2.70;;;;;;;23.26;18.92;98776.28;8364751;28;20240;-67
2021/04/23 13:10:27;;;;;;;13.60;3.20;;;;;;;23.38;19.83;98775.22;8363964;28;20555;-67
2021/04/23 13:14:29;;;;;;;9.03;3.10;;;;;;;23.08;20.16;98782.13;8364626;28;20227;-66
2021/04/23 13:18:32;;;;;;;9.27;3.38;;;;;;;23.08;19.08;98776.84;8362821;28;20426;-66
2021/04/23 13:22:34;;;;;;;7.43;2.60;;;;;;;23.22;20.34;98770.41;8363513;28;20236;-64
2021/04/23 13:26:35;;;;;;;6.83;2.53;;;;;;;22.67;20.12;98759.94;8362915;28;20306;-65
2021/04/23 13:30:39;;;;;;;8.93;3.10;;;;;;;23.04;20.21;98749.03;8363514;28;20256;-64
2021/04/23 13:34:52;;;;;;;30.20;4.57;;;;;;;23.16;19.64;98752.44;8363541;28;20203;-65
2021/04/23 13:38:55;;;;;;;9.40;3.07;;;;;;;23.06;20.82;98757.66;8363623;28;20288;-64
2021/04/23 13:43:08;;;;;;;9.27;2.80;;;;;;;22.66;19.71;98763.53;8363586;28;20224;-64
2021/04/23 13:47:12;;;;;;;6.00;2.77;;;;;;;22.75;19.94;98764.59;8364260;28;20623;-64
2021/04/23 13:51:24;;;;;;;16.43;3.23;;;;;;;22.52;19.48;98750.63;8362568;28;20214;-65
2021/04/23 13:55:26;;;;;;;17.57;3.50;;;;;;;22.78;19.98;98751.13;8364394;28;20195;-65
2021/04/23 13:59:30;;;;;;;12.50;2.67;;;;;;;22.60;21.36;98748.22;8367558;28;20237;-67
2021/04/23 14:03:32;;;;;;;8.63;3.10;;;;;;;22.81;19.72;98743.81;8368531;28;20223;-68
2021/04/23 14:07:34;;;;;;;6.60;2.70;;;;;;;22.66;19.28;98742.44;8369650;28;20204;-68
2021/04/23 14:11:37;;;;;;;10.53;2.97;;;;;;;22.60;21.20;98745.56;8369758;28;20208;-68
2021/04/23 14:15:39;;;;;;;8.00;2.80;;;;;;;22.73;20.11;98735.69;8369063;28;20313;-68
2021/04/23 14:19:43;;;;;;;12.23;3.50;;;;;;;22.46;21.65;98741.41;8368606;28;20302;-68
2021/04/23 14:23:46;;;;;;;11.67;3.40;;;;;;;22.43;21.46;98739.84;8367612;28;20223;-67
2021/04/23 14:27:47;;;;;;;8.90;3.37;;;;;;;22.60;21.45;98727.94;8368943;28;20604;-67
2021/04/23 14:31:50;;;;;;;10.43;3.83;;;;;;;22.59;21.31;98730.69;8367526;28;20254;-67
2021/04/23 14:35:54;;;;;;;13.53;3.73;;;;;;;22.47;21.14;98729.91;8368139;28;20205;-67
2021/04/23 14:39:57;;;;;;;11.43;4.70;;;;;;;21.98;20.41;98728.53;8367563;28;20215;-66
2021/04/23 14:43:58;;;;;;;7.23;4.23;;;;;;;21.87;21.21;98732.00;8367734;28;20223;-66
2021/04/23 14:48:00;;;;;;;8.67;4.63;;;;;;;21.75;21.19;98725.06;8365032;28;20221;-66
2021/04/23 14:52:03;;;;;;;11.43;4.70;;;;;;;21.54;21.52;98719.69;8367447;28;20562;-70
2021/04/23 14:56:06;;;;;;;7.60;4.70;;;;;;;21.50;20.28;98719.06;8368362;28;20199;-70
2021/04/23 15:00:08;;;;;;;10.73;4.97;;;;;;;21.63;19.79;98714.53;8391938;28;20275;-70
2021/04/23 15:04:10;;;;;;;10.87;5.07;;;;;;;21.44;21.01;98709.00;8400059;28;20227;-70
2021/04/23 15:08:12;;;;;;;10.33;5.20;;;;;;;21.21;21.16;98721.25;8399868;28;20226;-70
2021/04/23 15:12:15;;;;;;;13.40;5.37;;;;;;;21.00;21.31;98714.06;8398611;28;20199;-71
2021/04/23 15:16:17;;;;;;;14.67;5.13;;;;;;;20.81;21.10;98711.97;8401007;28;20220;-63
2021/04/23 15:20:19;;;;;;;24.73;5.43;;;;;;;21.36;23.64;98706.09;8399693;28;20217;-63
2021/04/23 15:24:21;;;;;;;18.53;4.13;;;;;;;21.67;23.90;98705.41;8400017;28;20227;-62
2021/04/23 15:28:24;;;;;;;18.83;4.90;;;;;;;21.61;23.65;98705.03;8399388;28;20201;-63
2021/04/23 15:32:26;;;;;;;10.83;4.30;;;;;;;21.56;23.22;98701.94;8398672;28;20241;-63
2021/04/23 15:36:29;;;;;;;12.83;3.43;;;;;;;21.52;22.47;98703.97;8398449;28;20209;-62
2021/04/23 15:40:31;;;;;;;13.37;4.60;;;;;;;21.41;22.63;98704.78;8398320;28;20203;-62
2021/04/23 15:44:34;;;;;;;19.63;4.23;;;;;;;21.66;23.55;98705.53;8398226;28;20227;-62
2021/04/23 15:48:36;;;;;;;13.10;4.03;;;;;;;21.57;22.47;98706.25;8397581;28;20222;-62
2021/04/23 15:52:38;;;;;;;8.63;3.57;;;;;;;21.42;22.96;98711.72;8399106;28;20524;-62
2021/04/23 15:56:40;;;;;;;15.43;3.60;;;;;;;21.31;22.30;98706.44;8397893;28;20564;-62
2021/04/23 16:00:44;;;;;;;11.20;3.70;;;;;;;21.28;23.55;98698.78;8398076;28;20202;-63
2021/04/23 16:04:46;;;;;;;11.40;3.10;;;;;;;21.33;23.42;98701.06;8398330;28;20239;-62
2021/04/23 16:08:48;;;;;;;12.23;3.57;;;;;;;21.22;23.47;98700.06;8398900;28;20197;-62
2021/04/23 16:12:51;;;;;;;10.33;4.47;;;;;;;20.68;21.69;98683.09;8398585;28;20594;-63
2021/04/23 16:16:54;;;;;;;8.97;5.53;;;;;;;20.03;21.39;98686.94;8398081;28;20232;-69
2021/04/23 16:20:56;;;;;;;10.10;5.17;;;;;;;19.83;21.81;98688.34;8398327;28;20648;-70
2021/04/23 16:24:58;;;;;;;10.00;5.63;;;;;;;19.84;22.37;98682.16;8398181;28;20247;-70
2021/04/23 16:28:59;;;;;;;11.17;4.43;;;;;;;19.52;23.01;98685.22;8397994;28;20655;-69
2021/04/23 16:33:04;;;;;;;8.40;4.57;;;;;;;19.10;22.95;98684.59;8397000;28;20234;-69
2021/04/23 16:37:06;;;;;;;8.03;3.70;;;;;;;19.16;23.83;98688.59;8397686;28;20218;-69
2021/04/23 16:41:09;;;;;;;9.00;3.80;;;;;;;18.71;23.85;98688.06;8397810;28;20207;-69
2021/04/23 16:45:12;;;;;;;15.43;4.27;;;;;;;18.78;24.64;98681.47;8397767;28;20207;-69
2021/04/23 16:49:15;;;;;;;6.77;3.20;;;;;;;19.08;23.43;98683.03;8395948;28;20203;-70
2021/04/23 16:53:17;;;;;;;9.20;3.60;;;;;;;18.92;23.91;98686.69;8396439;28;20211;-69
2021/04/23 16:57:19;;;;;;;7.47;3.53;;;;;;;18.71;23.27;98686.28;8396470;28;20199;-68
2021/04/23 17:01:20;;;;;;;7.87;3.70;;;;;;;18.59;24.31;98679.25;8396661;28;20728;-68
2021/04/23 17:05:24;;;;;;;8.60;3.60;;;;;;;18.51;23.91;98692.03;8398093;28;20693;-69
2021/04/23 17:09:26;;;;;;;12.27;3.80;;;;;;;18.46;24.13;98683.59;8397688;28;20202;-69
2021/04/23 17:13:28;;;;;;;10.80;3.33;;;;;;;18.47;24.87;98686.13;8396634;28;20245;-69
2021/04/23 17:17:30;;;;;;;8.13;2.87;;;;;;;18.30;23.50;98691.63;8396780;28;20226;-68
2021/04/23 17:21:37;;;;;;;7.07;2.50;;;;;;;18.02;22.59;98684.69;8397208;28;20254;-69
2021/04/23 17:25:39;;;;;;;5.40;2.70;;;;;;;17.91;22.78;98682.75;8396246;28;20203;-70
2021/04/23 17:29:41;;;;;;;9.70;3.50;;;;;;;18.00;23.52;98689.19;8396949;28;20230;-70
2021/04/23 17:33:43;;;;;;;7.40;3.40;;;;;;;17.98;23.47;98686.66;8399040;28;20187;-69
2021/04/23 17:37:46;;;;;;;10.40;4.57;;;;;;;17.97;25.26;98687.59;8403012;28;20206;-69
2021/04/23 17:41:48;;;;;;;10.80;5.47;;;;;;;17.97;25.65;98690.22;8402899;28;20550;-68
2021/04/23 17:45:50;;;;;;;8.60;4.87;;;;;;;17.93;24.03;98686.97;8402869;28;20556;-68
2021/04/23 17:49:52;;;;;;;12.90;8.33;;;;;;;17.77;25.16;98692.28;8403996;28;20210;-69
2021/04/23 17:53:55;;;;;;;9.43;5.57;;;;;;;17.87;25.21;98684.72;8403360;28;20221;-70
2021/04/23 17:57:57;;;;;;;19.20;14.67;;;;;;;17.78;24.44;98680.88;8402862;28;20214;-70
2021/04/23 18:01:59;;;;;;;16.57;12.83;;;;;;;17.60;23.74;98676.78;8402530;28;20218;-70
2021/04/23 18:06:01;;;;;;;20.67;13.60;;;;;;;17.55;24.21;98684.94;8402376;28;20207;-70
2021/04/23 18:10:05;;;;;;;12.23;6.97;;;;;;;17.44;25.95;98689.97;8402620;28;20203;-69
2021/04/23 18:14:07;;;;;;;13.10;6.77;;;;;;;17.39;24.33;98692.03;8402241;28;20219;-69
2021/04/23 18:18:09;;;;;;;22.27;17.03;;;;;;;17.31;24.79;98695.09;8402760;28;20281;-69
2021/04/23 18:22:11;;;;;;;12.20;7.60;;;;;;;17.17;24.28;98695.06;8401500;28;20227;-69
2021/04/23 18:26:13;;;;;;;10.57;4.37;;;;;;;16.99;24.35;98699.66;8401645;28;20220;-69
2021/04/23 18:30:17;;;;;;;6.13;2.80;;;;;;;16.86;24.59;98699.50;8401749;28;20231;-69
2021/04/23 18:34:19;;;;;;;7.20;2.87;;;;;;;16.74;24.32;98702.81;8402672;28;20203;-69
2021/04/23 18:38:21;;;;;;;7.00;2.80;;;;;;;16.68;24.85;98705.78;8401452;28;20294;-69
2021/04/23 18:42:25;;;;;;;4.20;2.70;;;;;;;16.57;25.25;98709.84;8400898;28;20273;-69
2021/04/23 18:46:27;;;;;;;11.03;4.97;;;;;;;16.45;25.74;98718.41;8399730;28;20536;-69
2021/04/23 18:50:30;;;;;;;7.03;3.43;;;;;;;16.32;26.58;98718.25;8401406;28;20199;-68
2021/04/23 18:54:32;;;;;;;10.73;3.10;;;;;;;16.19;26.92;98719.84;8400694;28;20214;-69
2021/04/23 18:58:35;;;;;;;10.40;6.23;;;;;;;16.09;27.61;98722.13;8400374;28;20667;-69
2021/04/23 19:02:37;;;;;;;15.50;10.20;;;;;;;15.95;27.69;98735.94;8400287;28;20234;-69
2021/04/23 19:06:39;;;;;;;12.80;9.00;;;;;;;15.83;28.55;98732.22;8397856;28;20200;-70